sensor_id;sensor_type;location;lat;lon;timestamp;temperature;humidity
65245;DHT22;51846;48.692;2.382;2023-08-31T00:01:47;16.02;68.23
65245;DHT22;51846;48.692;2.382;2023-08-31T00:04:17;16.19;67.90
65245;DHT22;51846;48.692;2.382;2023-08-31T00:06:43;16.29;67.69
65245;DHT22;51846;48.692;2.382;2023-08-31T00:09:12;16.29;67.56
65245;DHT22;51846;48.692;2.382;2023-08-31T00:11:37;16.38;67.34
65245;DHT22;51846;48.692;2.382;2023-08-31T00:14:03;16.45;67.18
65245;DHT22;51846;48.692;2.382;2023-08-31T00:16:29;16.45;67.16
65245;DHT22;51846;48.692;2.382;2023-08-31T00:18:58;16.52;67.01
65245;DHT22;51846;48.692;2.382;2023-08-31T00:21:24;16.52;66.88
65245;DHT22;51846;48.692;2.382;2023-08-31T00:23:49;16.52;66.93
65245;DHT22;51846;48.692;2.382;2023-08-31T00:26:15;16.53;66.90
65245;DHT22;51846;48.692;2.382;2023-08-31T00:28:41;16.55;67.04
65245;DHT22;51846;48.692;2.382;2023-08-31T00:31:10;16.22;67.55
65245;DHT22;51846;48.692;2.382;2023-08-31T00:33:38;15.95;68.44
65245;DHT22;51846;48.692;2.382;2023-08-31T00:36:04;15.91;68.51
65245;DHT22;51846;48.692;2.382;2023-08-31T00:38:30;16.09;68.17
65245;DHT22;51846;48.692;2.382;2023-08-31T00:40:56;16.24;68.19
65245;DHT22;51846;48.692;2.382;2023-08-31T00:43:21;16.09;68.11
65245;DHT22;51846;48.692;2.382;2023-08-31T00:45:50;16.11;68.37
65245;DHT22;51846;48.692;2.382;2023-08-31T00:48:16;16.08;68.42
65245;DHT22;51846;48.692;2.382;2023-08-31T00:50:44;16.19;68.23
65245;DHT22;51846;48.692;2.382;2023-08-31T00:53:09;16.29;68.14
65245;DHT22;51846;48.692;2.382;2023-08-31T00:55:34;16.28;68.13
65245;DHT22;51846;48.692;2.382;2023-08-31T00:58:00;16.33;68.02
65245;DHT22;51846;48.692;2.382;2023-08-31T01:00:50;16.35;67.99
65245;DHT22;51846;48.692;2.382;2023-08-31T01:03:31;16.38;68.25
65245;DHT22;51846;48.692;2.382;2023-08-31T01:14:13;16.32;68.27
65245;DHT22;51846;48.692;2.382;2023-08-31T01:16:42;16.32;68.41
65245;DHT22;51846;48.692;2.382;2023-08-31T01:22:00;16.25;68.85
65245;DHT22;51846;48.692;2.382;2023-08-31T01:24:29;16.18;68.86
65245;DHT22;51846;48.692;2.382;2023-08-31T01:26:55;16.22;68.89
65245;DHT22;51846;48.692;2.382;2023-08-31T01:29:20;16.22;68.59
65245;DHT22;51846;48.692;2.382;2023-08-31T01:31:46;16.24;68.65
65245;DHT22;51846;48.692;2.382;2023-08-31T01:34:11;16.26;68.74
65245;DHT22;51846;48.692;2.382;2023-08-31T01:36:40;16.24;68.68
65245;DHT22;51846;48.692;2.382;2023-08-31T01:41:36;16.19;68.69
65245;DHT22;51846;48.692;2.382;2023-08-31T01:44:03;16.18;68.49
65245;DHT22;51846;48.692;2.382;2023-08-31T01:46:30;16.18;68.75
65245;DHT22;51846;48.692;2.382;2023-08-31T01:48:56;16.24;68.76
65245;DHT22;51846;48.692;2.382;2023-08-31T01:51:21;16.14;68.85
65245;DHT22;51846;48.692;2.382;2023-08-31T01:53:47;16.14;69.08
65245;DHT22;51846;48.692;2.382;2023-08-31T01:56:12;16.14;69.04
65245;DHT22;51846;48.692;2.382;2023-08-31T01:58:39;16.08;69.11
65245;DHT22;51846;48.692;2.382;2023-08-31T02:01:04;16.09;68.95
65245;DHT22;51846;48.692;2.382;2023-08-31T02:03:29;15.87;69.26
65245;DHT22;51846;48.692;2.382;2023-08-31T02:05:55;16.02;69.07
65245;DHT22;51846;48.692;2.382;2023-08-31T02:08:20;16.01;69.19
65245;DHT22;51846;48.692;2.382;2023-08-31T02:10:46;16.01;69.25
65245;DHT22;51846;48.692;2.382;2023-08-31T02:13:14;15.90;69.68
65245;DHT22;51846;48.692;2.382;2023-08-31T02:15:39;15.91;69.66
65245;DHT22;51846;48.692;2.382;2023-08-31T02:18:04;15.73;69.80
65245;DHT22;51846;48.692;2.382;2023-08-31T02:20:30;15.83;69.92
65245;DHT22;51846;48.692;2.382;2023-08-31T02:22:56;15.83;69.99
65245;DHT22;51846;48.692;2.382;2023-08-31T02:25:21;15.80;69.91
65245;DHT22;51846;48.692;2.382;2023-08-31T02:27:47;15.77;69.84
65245;DHT22;51846;48.692;2.382;2023-08-31T02:30:12;15.81;69.99
65245;DHT22;51846;48.692;2.382;2023-08-31T02:32:38;15.55;70.64
65245;DHT22;51846;48.692;2.382;2023-08-31T02:35:03;15.42;70.95
65245;DHT22;51846;48.692;2.382;2023-08-31T02:37:29;15.13;72.02
65245;DHT22;51846;48.692;2.382;2023-08-31T02:39:54;15.07;72.21
65245;DHT22;51846;48.692;2.382;2023-08-31T02:42:20;14.92;72.56
65245;DHT22;51846;48.692;2.382;2023-08-31T02:44:45;14.90;72.98
65245;DHT22;51846;48.692;2.382;2023-08-31T02:47:10;14.93;72.95
65245;DHT22;51846;48.692;2.382;2023-08-31T02:49:36;14.85;73.11
65245;DHT22;51846;48.692;2.382;2023-08-31T02:52:01;14.85;73.16
65245;DHT22;51846;48.692;2.382;2023-08-31T02:54:26;14.85;73.18
65245;DHT22;51846;48.692;2.382;2023-08-31T02:56:52;15.02;72.74
65245;DHT22;51846;48.692;2.382;2023-08-31T02:59:17;15.00;72.73
65245;DHT22;51846;48.692;2.382;2023-08-31T03:01:42;14.90;72.95
65245;DHT22;51846;48.692;2.382;2023-08-31T03:04:11;14.88;73.19
65245;DHT22;51846;48.692;2.382;2023-08-31T03:06:37;14.89;73.05
65245;DHT22;51846;48.692;2.382;2023-08-31T03:09:02;14.88;73.20
65245;DHT22;51846;48.692;2.382;2023-08-31T03:11:28;15.02;72.58
65245;DHT22;51846;48.692;2.382;2023-08-31T03:13:53;14.95;72.68
65245;DHT22;51846;48.692;2.382;2023-08-31T03:16:18;15.24;72.25
65245;DHT22;51846;48.692;2.382;2023-08-31T03:18:44;15.29;71.92
65245;DHT22;51846;48.692;2.382;2023-08-31T03:21:09;15.34;71.63
65245;DHT22;51846;48.692;2.382;2023-08-31T03:23:34;15.00;72.36
65245;DHT22;51846;48.692;2.382;2023-08-31T03:26:05;14.82;73.04
65245;DHT22;51846;48.692;2.382;2023-08-31T03:28:31;14.90;72.97
65245;DHT22;51846;48.692;2.382;2023-08-31T03:30:57;14.85;73.12
65245;DHT22;51846;48.692;2.382;2023-08-31T03:33:22;15.03;72.78
65245;DHT22;51846;48.692;2.382;2023-08-31T03:35:47;14.98;72.82
65245;DHT22;51846;48.692;2.382;2023-08-31T03:38:13;15.22;72.43
65245;DHT22;51846;48.692;2.382;2023-08-31T03:40:38;15.20;72.29
65245;DHT22;51846;48.692;2.382;2023-08-31T03:43:04;15.13;72.38
65245;DHT22;51846;48.692;2.382;2023-08-31T03:45:29;15.12;72.61
65245;DHT22;51846;48.692;2.382;2023-08-31T03:47:54;15.07;72.59
65245;DHT22;51846;48.692;2.382;2023-08-31T03:50:20;15.26;72.36
65245;DHT22;51846;48.692;2.382;2023-08-31T03:52:45;15.13;72.45
65245;DHT22;51846;48.692;2.382;2023-08-31T03:55:10;14.88;73.23
65245;DHT22;51846;48.692;2.382;2023-08-31T03:57:36;14.92;73.31
65245;DHT22;51846;48.692;2.382;2023-08-31T04:00:01;14.98;73.34
65245;DHT22;51846;48.692;2.382;2023-08-31T04:02:30;15.14;72.85
65245;DHT22;51846;48.692;2.382;2023-08-31T04:04:57;15.16;72.77
65245;DHT22;51846;48.692;2.382;2023-08-31T04:07:23;15.23;72.85
65245;DHT22;51846;48.692;2.382;2023-08-31T04:09:48;15.23;72.81
65245;DHT22;51846;48.692;2.382;2023-08-31T04:12:13;15.24;72.79
65245;DHT22;51846;48.692;2.382;2023-08-31T04:14:38;15.03;73.36
65245;DHT22;51846;48.692;2.382;2023-08-31T04:17:04;15.00;73.51
65245;DHT22;51846;48.692;2.382;2023-08-31T04:19:30;15.16;73.40
65245;DHT22;51846;48.692;2.382;2023-08-31T04:21:55;15.29;73.09
65245;DHT22;51846;48.692;2.382;2023-08-31T04:24:20;15.26;73.20
65245;DHT22;51846;48.692;2.382;2023-08-31T04:26:46;15.37;73.02
65245;DHT22;51846;48.692;2.382;2023-08-31T04:29:13;15.29;72.90
65245;DHT22;51846;48.692;2.382;2023-08-31T04:31:38;15.09;73.71
65245;DHT22;51846;48.692;2.382;2023-08-31T04:34:04;15.19;73.52
65245;DHT22;51846;48.692;2.382;2023-08-31T04:36:29;15.22;73.35
65245;DHT22;51846;48.692;2.382;2023-08-31T04:38:55;15.04;74.20
65245;DHT22;51846;48.692;2.382;2023-08-31T04:41:20;15.04;74.24
65245;DHT22;51846;48.692;2.382;2023-08-31T04:43:46;14.89;74.76
65245;DHT22;51846;48.692;2.382;2023-08-31T04:46:14;14.95;74.59
65245;DHT22;51846;48.692;2.382;2023-08-31T04:48:40;14.89;74.82
65245;DHT22;51846;48.692;2.382;2023-08-31T04:51:05;15.02;74.44
65245;DHT22;51846;48.692;2.382;2023-08-31T04:53:31;15.06;74.54
65245;DHT22;51846;48.692;2.382;2023-08-31T04:55:56;15.09;74.46
65245;DHT22;51846;48.692;2.382;2023-08-31T04:58:21;15.24;74.09
65245;DHT22;51846;48.692;2.382;2023-08-31T05:00:47;15.12;74.24
65245;DHT22;51846;48.692;2.382;2023-08-31T05:03:13;14.98;74.81
65245;DHT22;51846;48.692;2.382;2023-08-31T05:05:38;15.03;74.72
65245;DHT22;51846;48.692;2.382;2023-08-31T05:08:04;14.95;74.79
65245;DHT22;51846;48.692;2.382;2023-08-31T05:10:30;15.04;74.65
65245;DHT22;51846;48.692;2.382;2023-08-31T05:12:55;15.13;74.50
65245;DHT22;51846;48.692;2.382;2023-08-31T05:15:20;15.20;74.36
65245;DHT22;51846;48.692;2.382;2023-08-31T05:17:46;15.07;74.78
65245;DHT22;51846;48.692;2.382;2023-08-31T05:20:12;15.27;74.39
65245;DHT22;51846;48.692;2.382;2023-08-31T05:22:38;15.14;74.62
65245;DHT22;51846;48.692;2.382;2023-08-31T05:25:04;15.06;75.07
65245;DHT22;51846;48.692;2.382;2023-08-31T05:27:29;15.02;75.19
65245;DHT22;51846;48.692;2.382;2023-08-31T05:29:55;15.16;74.84
65245;DHT22;51846;48.692;2.382;2023-08-31T05:32:20;15.24;74.52
65245;DHT22;51846;48.692;2.382;2023-08-31T05:34:45;15.37;74.44
65245;DHT22;51846;48.692;2.382;2023-08-31T05:37:11;15.43;74.16
65245;DHT22;51846;48.692;2.382;2023-08-31T05:39:37;15.49;74.04
65245;DHT22;51846;48.692;2.382;2023-08-31T05:42:02;15.50;74.01
65245;DHT22;51846;48.692;2.382;2023-08-31T05:44:27;15.55;73.91
65245;DHT22;51846;48.692;2.382;2023-08-31T05:46:53;15.32;74.41
65245;DHT22;51846;48.692;2.382;2023-08-31T05:49:18;15.37;74.53
65245;DHT22;51846;48.692;2.382;2023-08-31T05:51:43;15.36;74.53
65245;DHT22;51846;48.692;2.382;2023-08-31T05:54:09;15.18;75.26
65245;DHT22;51846;48.692;2.382;2023-08-31T05:56:37;15.16;75.25
65245;DHT22;51846;48.692;2.382;2023-08-31T05:59:05;15.27;75.09
65245;DHT22;51846;48.692;2.382;2023-08-31T06:01:30;15.46;74.60
65245;DHT22;51846;48.692;2.382;2023-08-31T06:03:55;15.26;75.17
65245;DHT22;51846;48.692;2.382;2023-08-31T06:06:21;15.36;74.88
65245;DHT22;51846;48.692;2.382;2023-08-31T06:08:46;15.33;75.13
65245;DHT22;51846;48.692;2.382;2023-08-31T06:11:11;15.20;75.23
65245;DHT22;51846;48.692;2.382;2023-08-31T06:13:38;15.20;75.64
65245;DHT22;51846;48.692;2.382;2023-08-31T06:16:04;15.13;75.77
65245;DHT22;51846;48.692;2.382;2023-08-31T06:18:29;15.06;75.86
65245;DHT22;51846;48.692;2.382;2023-08-31T06:20:54;15.18;75.86
65245;DHT22;51846;48.692;2.382;2023-08-31T06:23:20;15.30;75.60
65245;DHT22;51846;48.692;2.382;2023-08-31T06:25:45;15.47;75.12
65245;DHT22;51846;48.692;2.382;2023-08-31T06:28:13;15.46;75.00
65245;DHT22;51846;48.692;2.382;2023-08-31T06:30:42;15.51;74.97
65245;DHT22;51846;48.692;2.382;2023-08-31T06:33:12;15.50;75.13
65245;DHT22;51846;48.692;2.382;2023-08-31T06:35:38;15.42;75.57
65245;DHT22;51846;48.692;2.382;2023-08-31T06:38:04;15.54;74.93
65245;DHT22;51846;48.692;2.382;2023-08-31T06:40:30;15.54;75.22
65245;DHT22;51846;48.692;2.382;2023-08-31T06:42:55;15.65;74.96
65245;DHT22;51846;48.692;2.382;2023-08-31T06:45:20;15.75;74.19
65245;DHT22;51846;48.692;2.382;2023-08-31T06:47:46;15.80;74.69
65245;DHT22;51846;48.692;2.382;2023-08-31T06:50:11;15.84;74.19
65245;DHT22;51846;48.692;2.382;2023-08-31T06:52:36;15.87;73.89
65245;DHT22;51846;48.692;2.382;2023-08-31T06:55:02;15.94;74.03
65245;DHT22;51846;48.692;2.382;2023-08-31T06:57:28;15.88;74.30
65245;DHT22;51846;48.692;2.382;2023-08-31T06:59:54;15.81;74.49
65245;DHT22;51846;48.692;2.382;2023-08-31T07:02:20;15.71;74.98
65245;DHT22;51846;48.692;2.382;2023-08-31T07:04:47;15.85;74.85
65245;DHT22;51846;48.692;2.382;2023-08-31T07:07:14;15.87;74.68
65245;DHT22;51846;48.692;2.382;2023-08-31T07:09:43;16.04;73.88
65245;DHT22;51846;48.692;2.382;2023-08-31T07:12:11;16.02;74.34
65245;DHT22;51846;48.692;2.382;2023-08-31T07:14:36;16.11;73.94
65245;DHT22;51846;48.692;2.382;2023-08-31T07:17:02;16.17;73.87
65245;DHT22;51846;48.692;2.382;2023-08-31T07:19:27;16.07;73.93
65245;DHT22;51846;48.692;2.382;2023-08-31T07:21:52;16.12;73.89
65245;DHT22;51846;48.692;2.382;2023-08-31T07:24:20;16.25;73.55
65245;DHT22;51846;48.692;2.382;2023-08-31T07:26:46;16.29;72.97
65245;DHT22;51846;48.692;2.382;2023-08-31T07:29:11;16.29;73.30
65245;DHT22;51846;48.692;2.382;2023-08-31T07:31:38;16.39;72.77
65245;DHT22;51846;48.692;2.382;2023-08-31T07:34:05;16.47;72.76
65245;DHT22;51846;48.692;2.382;2023-08-31T07:36:30;16.49;72.17
65245;DHT22;51846;48.692;2.382;2023-08-31T07:38:57;16.51;72.44
65245;DHT22;51846;48.692;2.382;2023-08-31T07:41:23;16.48;72.61
65245;DHT22;51846;48.692;2.382;2023-08-31T07:43:48;16.51;72.36
65245;DHT22;51846;48.692;2.382;2023-08-31T07:46:15;16.58;72.01
65245;DHT22;51846;48.692;2.382;2023-08-31T07:48:41;16.59;72.02
65245;DHT22;51846;48.692;2.382;2023-08-31T07:51:07;16.66;72.32
65245;DHT22;51846;48.692;2.382;2023-08-31T07:53:33;16.70;72.08
65245;DHT22;51846;48.692;2.382;2023-08-31T07:55:58;16.76;71.64
65245;DHT22;51846;48.692;2.382;2023-08-31T07:58:24;16.82;71.49
65245;DHT22;51846;48.692;2.382;2023-08-31T08:00:55;16.79;71.74
65245;DHT22;51846;48.692;2.382;2023-08-31T08:03:21;16.84;71.20
65245;DHT22;51846;48.692;2.382;2023-08-31T08:05:47;16.84;71.50
65245;DHT22;51846;48.692;2.382;2023-08-31T08:08:13;16.96;71.03
65245;DHT22;51846;48.692;2.382;2023-08-31T08:10:38;16.87;72.37
65245;DHT22;51846;48.692;2.382;2023-08-31T08:13:04;16.80;71.00
65245;DHT22;51846;48.692;2.382;2023-08-31T08:15:31;16.90;71.22
65245;DHT22;51846;48.692;2.382;2023-08-31T08:17:56;16.96;70.89
65245;DHT22;51846;48.692;2.382;2023-08-31T08:20:23;17.16;69.81
65245;DHT22;51846;48.692;2.382;2023-08-31T08:22:48;17.24;69.57
65245;DHT22;51846;48.692;2.382;2023-08-31T08:25:18;17.31;69.17
65245;DHT22;51846;48.692;2.382;2023-08-31T08:27:43;17.27;69.79
65245;DHT22;51846;48.692;2.382;2023-08-31T08:30:08;17.34;70.16
65245;DHT22;51846;48.692;2.382;2023-08-31T08:32:35;17.47;69.54
65245;DHT22;51846;48.692;2.382;2023-08-31T08:35:00;17.44;69.09
65245;DHT22;51846;48.692;2.382;2023-08-31T08:37:25;17.58;68.42
65245;DHT22;51846;48.692;2.382;2023-08-31T08:39:51;17.55;68.81
65245;DHT22;51846;48.692;2.382;2023-08-31T08:42:18;17.51;68.99
65245;DHT22;51846;48.692;2.382;2023-08-31T08:44:44;17.48;68.01
65245;DHT22;51846;48.692;2.382;2023-08-31T08:47:11;17.45;68.01
65245;DHT22;51846;48.692;2.382;2023-08-31T08:49:38;17.45;67.65
65245;DHT22;51846;48.692;2.382;2023-08-31T08:52:04;17.50;66.93
65245;DHT22;51846;48.692;2.382;2023-08-31T08:54:30;17.60;66.93
65245;DHT22;51846;48.692;2.382;2023-08-31T08:56:56;17.71;66.68
65245;DHT22;51846;48.692;2.382;2023-08-31T08:59:23;17.55;67.01
65245;DHT22;51846;48.692;2.382;2023-08-31T09:01:48;17.65;66.97
65245;DHT22;51846;48.692;2.382;2023-08-31T09:04:14;17.70;66.92
65245;DHT22;51846;48.692;2.382;2023-08-31T09:06:40;17.79;66.41
65245;DHT22;51846;48.692;2.382;2023-08-31T09:09:08;17.85;67.15
65245;DHT22;51846;48.692;2.382;2023-08-31T09:11:35;17.88;67.28
65245;DHT22;51846;48.692;2.382;2023-08-31T09:14:16;17.91;68.00
65245;DHT22;51846;48.692;2.382;2023-08-31T09:16:48;17.89;67.88
65245;DHT22;51846;48.692;2.382;2023-08-31T09:19:24;18.01;67.76
65245;DHT22;51846;48.692;2.382;2023-08-31T09:21:51;17.89;68.40
65245;DHT22;51846;48.692;2.382;2023-08-31T09:24:17;17.97;69.92
65245;DHT22;51846;48.692;2.382;2023-08-31T09:26:54;17.74;68.05
65245;DHT22;51846;48.692;2.382;2023-08-31T09:29:20;17.77;68.30
65245;DHT22;51846;48.692;2.382;2023-08-31T09:31:45;17.79;68.21
65245;DHT22;51846;48.692;2.382;2023-08-31T09:34:12;17.74;68.26
65245;DHT22;51846;48.692;2.382;2023-08-31T09:36:38;17.73;68.52
65245;DHT22;51846;48.692;2.382;2023-08-31T09:39:05;17.82;68.42
65245;DHT22;51846;48.692;2.382;2023-08-31T09:41:31;17.97;68.37
65245;DHT22;51846;48.692;2.382;2023-08-31T09:43:56;18.04;68.35
65245;DHT22;51846;48.692;2.382;2023-08-31T09:46:22;18.18;68.68
65245;DHT22;51846;48.692;2.382;2023-08-31T09:48:48;18.26;68.20
65245;DHT22;51846;48.692;2.382;2023-08-31T09:51:15;18.33;68.30
65245;DHT22;51846;48.692;2.382;2023-08-31T09:53:48;18.32;67.09
65245;DHT22;51846;48.692;2.382;2023-08-31T09:56:18;18.36;68.05
65245;DHT22;51846;48.692;2.382;2023-08-31T09:58:45;18.39;68.06
65245;DHT22;51846;48.692;2.382;2023-08-31T10:01:11;18.42;67.52
65245;DHT22;51846;48.692;2.382;2023-08-31T10:03:37;18.39;68.22
65245;DHT22;51846;48.692;2.382;2023-08-31T10:06:03;18.35;67.71
65245;DHT22;51846;48.692;2.382;2023-08-31T10:08:29;18.40;67.71
65245;DHT22;51846;48.692;2.382;2023-08-31T10:10:59;18.40;67.06
65245;DHT22;51846;48.692;2.382;2023-08-31T10:13:25;18.42;66.77
65245;DHT22;51846;48.692;2.382;2023-08-31T10:15:52;18.48;66.32
65245;DHT22;51846;48.692;2.382;2023-08-31T10:18:18;18.42;66.61
65245;DHT22;51846;48.692;2.382;2023-08-31T10:20:43;18.38;67.21
65245;DHT22;51846;48.692;2.382;2023-08-31T10:23:10;18.38;67.48
65245;DHT22;51846;48.692;2.382;2023-08-31T10:28:20;18.49;66.83
65245;DHT22;51846;48.692;2.382;2023-08-31T10:31:08;18.52;66.60
65245;DHT22;51846;48.692;2.382;2023-08-31T10:33:34;18.52;67.80
65245;DHT22;51846;48.692;2.382;2023-08-31T10:35:59;18.32;67.28
65245;DHT22;51846;48.692;2.382;2023-08-31T10:38:29;18.16;66.70
65245;DHT22;51846;48.692;2.382;2023-08-31T10:41:16;18.35;66.94
65245;DHT22;51846;48.692;2.382;2023-08-31T10:43:54;18.38;65.93
65245;DHT22;51846;48.692;2.382;2023-08-31T10:46:36;18.43;65.40
65245;DHT22;51846;48.692;2.382;2023-08-31T10:51:36;18.43;64.53
65245;DHT22;51846;48.692;2.382;2023-08-31T10:59:23;18.56;63.01
65245;DHT22;51846;48.692;2.382;2023-08-31T11:01:54;18.56;62.34
65245;DHT22;51846;48.692;2.382;2023-08-31T11:04:24;18.64;62.17
65245;DHT22;51846;48.692;2.382;2023-08-31T11:07:12;18.69;62.97
65245;DHT22;51846;48.692;2.382;2023-08-31T11:09:38;18.73;63.97
65245;DHT22;51846;48.692;2.382;2023-08-31T11:12:04;18.86;64.74
65245;DHT22;51846;48.692;2.382;2023-08-31T11:14:30;18.76;63.75
65245;DHT22;51846;48.692;2.382;2023-08-31T11:16:55;18.70;62.88
65245;DHT22;51846;48.692;2.382;2023-08-31T11:19:21;18.60;62.92
65245;DHT22;51846;48.692;2.382;2023-08-31T11:21:46;18.64;62.49
65245;DHT22;51846;48.692;2.382;2023-08-31T11:24:12;18.69;62.87
65245;DHT22;51846;48.692;2.382;2023-08-31T11:26:38;18.62;63.04
65245;DHT22;51846;48.692;2.382;2023-08-31T11:29:06;18.66;62.70
65245;DHT22;51846;48.692;2.382;2023-08-31T11:31:32;18.74;62.24
65245;DHT22;51846;48.692;2.382;2023-08-31T11:33:57;18.80;62.37
65245;DHT22;51846;48.692;2.382;2023-08-31T11:36:24;18.92;61.27
65245;DHT22;51846;48.692;2.382;2023-08-31T11:38:50;18.99;60.47
65245;DHT22;51846;48.692;2.382;2023-08-31T11:41:16;19.03;58.99
65245;DHT22;51846;48.692;2.382;2023-08-31T11:43:42;18.84;60.19
65245;DHT22;51846;48.692;2.382;2023-08-31T11:46:08;18.26;61.76
65245;DHT22;51846;48.692;2.382;2023-08-31T11:48:34;18.18;63.36
65245;DHT22;51846;48.692;2.382;2023-08-31T11:51:00;18.02;62.49
65245;DHT22;51846;48.692;2.382;2023-08-31T11:53:27;18.04;62.40
65245;DHT22;51846;48.692;2.382;2023-08-31T11:55:52;17.97;63.09
65245;DHT22;51846;48.692;2.382;2023-08-31T11:58:19;17.98;63.25
65245;DHT22;51846;48.692;2.382;2023-08-31T12:00:45;17.97;64.11
65245;DHT22;51846;48.692;2.382;2023-08-31T12:03:12;18.11;63.85
65245;DHT22;51846;48.692;2.382;2023-08-31T12:05:48;17.94;65.29
65245;DHT22;51846;48.692;2.382;2023-08-31T12:08:16;17.99;66.73
65245;DHT22;51846;48.692;2.382;2023-08-31T12:10:48;17.98;67.56
65245;DHT22;51846;48.692;2.382;2023-08-31T12:13:14;18.02;68.11
65245;DHT22;51846;48.692;2.382;2023-08-31T12:15:39;18.04;68.71
65245;DHT22;51846;48.692;2.382;2023-08-31T12:18:12;18.01;69.11
65245;DHT22;51846;48.692;2.382;2023-08-31T12:20:49;17.77;70.64
65245;DHT22;51846;48.692;2.382;2023-08-31T12:23:16;17.88;71.54
65245;DHT22;51846;48.692;2.382;2023-08-31T12:25:48;17.82;72.68
65245;DHT22;51846;48.692;2.382;2023-08-31T12:28:14;17.88;74.00
65245;DHT22;51846;48.692;2.382;2023-08-31T12:30:42;17.87;76.27
65245;DHT22;51846;48.692;2.382;2023-08-31T12:33:09;17.27;79.62
65245;DHT22;51846;48.692;2.382;2023-08-31T12:35:35;17.38;79.75
65245;DHT22;51846;48.692;2.382;2023-08-31T12:38:00;17.20;82.22
65245;DHT22;51846;48.692;2.382;2023-08-31T12:40:25;17.12;84.00
65245;DHT22;51846;48.692;2.382;2023-08-31T12:42:51;17.28;83.52
65245;DHT22;51846;48.692;2.382;2023-08-31T12:45:16;16.94;85.40
65245;DHT22;51846;48.692;2.382;2023-08-31T12:47:41;17.00;85.96
65245;DHT22;51846;48.692;2.382;2023-08-31T12:50:07;17.12;85.45
65245;DHT22;51846;48.692;2.382;2023-08-31T12:52:32;16.92;86.59
65245;DHT22;51846;48.692;2.382;2023-08-31T12:54:58;17.04;86.91
65245;DHT22;51846;48.692;2.382;2023-08-31T12:57:23;16.86;87.98
65245;DHT22;51846;48.692;2.382;2023-08-31T12:59:48;16.69;88.44
65245;DHT22;51846;48.692;2.382;2023-08-31T13:02:14;16.73;89.36
65245;DHT22;51846;48.692;2.382;2023-08-31T13:04:39;16.72;89.47
65245;DHT22;51846;48.692;2.382;2023-08-31T13:07:05;16.72;89.77
65245;DHT22;51846;48.692;2.382;2023-08-31T13:09:30;16.60;89.97
65245;DHT22;51846;48.692;2.382;2023-08-31T13:11:56;16.53;90.29
65245;DHT22;51846;48.692;2.382;2023-08-31T13:14:21;16.68;90.64
65245;DHT22;51846;48.692;2.382;2023-08-31T13:16:47;16.73;90.99
65245;DHT22;51846;48.692;2.382;2023-08-31T13:19:12;16.63;90.79
65245;DHT22;51846;48.692;2.382;2023-08-31T13:21:37;16.63;90.92
65245;DHT22;51846;48.692;2.382;2023-08-31T13:24:03;16.48;90.25
65245;DHT22;51846;48.692;2.382;2023-08-31T13:26:28;16.56;91.17
65245;DHT22;51846;48.692;2.382;2023-08-31T13:28:54;16.60;90.94
65245;DHT22;51846;48.692;2.382;2023-08-31T13:31:19;16.56;91.29
65245;DHT22;51846;48.692;2.382;2023-08-31T13:33:45;16.60;91.64
65245;DHT22;51846;48.692;2.382;2023-08-31T13:36:11;16.55;91.13
65245;DHT22;51846;48.692;2.382;2023-08-31T13:38:37;16.56;91.32
65245;DHT22;51846;48.692;2.382;2023-08-31T13:41:02;16.69;92.05
65245;DHT22;51846;48.692;2.382;2023-08-31T13:43:28;16.69;91.98
65245;DHT22;51846;48.692;2.382;2023-08-31T13:45:54;16.76;92.01
65245;DHT22;51846;48.692;2.382;2023-08-31T13:48:20;16.83;91.95
65245;DHT22;51846;48.692;2.382;2023-08-31T13:50:47;16.94;92.04
65245;DHT22;51846;48.692;2.382;2023-08-31T13:53:13;16.86;91.76
65245;DHT22;51846;48.692;2.382;2023-08-31T13:55:38;16.92;91.75
65245;DHT22;51846;48.692;2.382;2023-08-31T13:58:07;17.00;92.05
65245;DHT22;51846;48.692;2.382;2023-08-31T14:00:34;16.96;91.91
65245;DHT22;51846;48.692;2.382;2023-08-31T14:03:00;16.94;91.90
65245;DHT22;51846;48.692;2.382;2023-08-31T14:05:29;17.09;91.79
65245;DHT22;51846;48.692;2.382;2023-08-31T14:07:55;17.12;91.88
65245;DHT22;51846;48.692;2.382;2023-08-31T14:10:26;17.16;92.14
65245;DHT22;51846;48.692;2.382;2023-08-31T14:12:52;17.22;91.91
65245;DHT22;51846;48.692;2.382;2023-08-31T14:15:17;17.27;91.68
65245;DHT22;51846;48.692;2.382;2023-08-31T14:17:43;17.34;91.29
65245;DHT22;51846;48.692;2.382;2023-08-31T14:20:08;17.41;91.38
65245;DHT22;51846;48.692;2.382;2023-08-31T14:22:36;17.38;91.68
65245;DHT22;51846;48.692;2.382;2023-08-31T14:25:02;17.38;91.13
65245;DHT22;51846;48.692;2.382;2023-08-31T14:27:28;17.45;91.13
65245;DHT22;51846;48.692;2.382;2023-08-31T14:29:56;17.41;91.34
65245;DHT22;51846;48.692;2.382;2023-08-31T14:32:23;17.37;91.36
65245;DHT22;51846;48.692;2.382;2023-08-31T14:34:49;17.37;91.52
65245;DHT22;51846;48.692;2.382;2023-08-31T14:37:14;17.41;91.50
65245;DHT22;51846;48.692;2.382;2023-08-31T14:39:40;17.58;91.00
65245;DHT22;51846;48.692;2.382;2023-08-31T14:42:06;17.53;90.75
65245;DHT22;51846;48.692;2.382;2023-08-31T14:44:31;17.57;90.68
65245;DHT22;51846;48.692;2.382;2023-08-31T14:46:57;17.57;90.82
65245;DHT22;51846;48.692;2.382;2023-08-31T14:49:22;17.71;90.30
65245;DHT22;51846;48.692;2.382;2023-08-31T14:51:50;17.64;90.63
65245;DHT22;51846;48.692;2.382;2023-08-31T14:54:15;17.70;90.36
65245;DHT22;51846;48.692;2.382;2023-08-31T14:56:40;17.60;90.20
65245;DHT22;51846;48.692;2.382;2023-08-31T14:59:06;17.73;90.33
65245;DHT22;51846;48.692;2.382;2023-08-31T15:01:31;17.75;90.36
65245;DHT22;51846;48.692;2.382;2023-08-31T15:03:56;17.74;90.18
65245;DHT22;51846;48.692;2.382;2023-08-31T15:06:22;17.91;89.48
65245;DHT22;51846;48.692;2.382;2023-08-31T15:08:47;17.82;89.83
65245;DHT22;51846;48.692;2.382;2023-08-31T15:11:12;17.88;89.98
65245;DHT22;51846;48.692;2.382;2023-08-31T15:13:38;17.97;89.98
65245;DHT22;51846;48.692;2.382;2023-08-31T15:16:04;17.97;89.53
65245;DHT22;51846;48.692;2.382;2023-08-31T15:18:30;17.92;89.79
65245;DHT22;51846;48.692;2.382;2023-08-31T15:20:56;17.89;90.05
65245;DHT22;51846;48.692;2.382;2023-08-31T15:23:21;17.91;89.90
65245;DHT22;51846;48.692;2.382;2023-08-31T15:25:47;18.05;89.81
65245;DHT22;51846;48.692;2.382;2023-08-31T15:28:13;18.11;89.75
65245;DHT22;51846;48.692;2.382;2023-08-31T15:30:38;18.08;89.61
65245;DHT22;51846;48.692;2.382;2023-08-31T15:33:04;18.09;89.72
65245;DHT22;51846;48.692;2.382;2023-08-31T15:35:30;18.13;89.51
65245;DHT22;51846;48.692;2.382;2023-08-31T15:37:57;18.16;90.01
65245;DHT22;51846;48.692;2.382;2023-08-31T15:40:22;18.31;89.08
65245;DHT22;51846;48.692;2.382;2023-08-31T15:42:48;18.33;89.27
65245;DHT22;51846;48.692;2.382;2023-08-31T15:45:13;18.42;89.03
65245;DHT22;51846;48.692;2.382;2023-08-31T15:47:39;18.52;88.35
65245;DHT22;51846;48.692;2.382;2023-08-31T15:50:04;18.31;89.39